createdAt,value
2022-11-07T00:02:42.451Z,67.32
2022-11-07T00:06:44.712Z,68.00
2022-11-07T00:10:46.432Z,68.18
2022-11-07T00:14:48.439Z,67.15
2022-11-07T00:18:51.109Z,100.90
2022-11-07T00:22:53.040Z,79.78
2022-11-07T00:26:55.066Z,83.00
2022-11-07T00:30:59.118Z,80.15
2022-11-07T00:35:00.819Z,72.93
2022-11-07T00:39:04.106Z,69.25
2022-11-07T00:43:05.745Z,67.00
2022-11-07T00:47:07.686Z,66.97
2022-11-07T00:51:24.115Z,64.97
2022-11-07T00:55:25.985Z,61.33
2022-11-07T00:59:27.778Z,59.65
2022-11-07T01:04:05.156Z,68.10
2022-11-07T01:08:07.263Z,73.93
2022-11-07T01:12:09.214Z,62.40
2022-11-07T01:16:11.725Z,63.40
2022-11-07T01:20:13.671Z,62.28
2022-11-07T01:24:16.151Z,61.83
2022-11-07T01:28:18.110Z,59.15
2022-11-07T01:32:19.810Z,65.97
2022-11-07T01:36:21.851Z,66.40
2022-11-07T01:40:23.831Z,69.32
2022-11-07T01:44:25.700Z,65.45
2022-11-07T01:48:27.460Z,61.40
2022-11-07T01:52:34.249Z,71.22
2022-11-07T01:56:39.387Z,59.40
2022-11-07T02:00:41.329Z,61.65
2022-11-07T02:04:43.217Z,71.43
2022-11-07T02:08:46.876Z,62.88
2022-11-07T02:12:48.808Z,56.55
2022-11-07T02:16:50.837Z,61.72
2022-11-07T02:20:52.569Z,60.80
2022-11-07T02:24:57.766Z,53.92
2022-11-07T02:29:01.833Z,49.15
2022-11-07T02:33:03.815Z,47.55
2022-11-07T02:37:11.795Z,58.35
2022-11-07T02:41:18.274Z,51.28
2022-11-07T02:45:25.372Z,54.60
2022-11-07T02:49:27.282Z,58.53
2022-11-07T02:53:29.138Z,63.70
2022-11-07T02:57:31.028Z,57.45
2022-11-07T03:01:32.801Z,48.33
2022-11-07T03:05:34.861Z,51.53
2022-11-07T03:09:36.532Z,48.75
2022-11-07T03:13:39.111Z,43.10
2022-11-07T03:17:41.528Z,49.67
2022-11-07T03:21:43.409Z,45.10
2022-11-07T03:25:45.030Z,48.72
2022-11-07T03:29:47.065Z,46.90
2022-11-07T03:33:48.736Z,53.08
2022-11-07T03:37:51.106Z,53.95
2022-11-07T03:41:53.118Z,50.35
2022-11-07T03:45:54.951Z,50.25
2022-11-07T03:49:56.636Z,48.72
2022-11-07T03:53:58.586Z,48.63
2022-11-07T03:58:00.346Z,52.20
2022-11-07T04:02:02.347Z,50.63
2022-11-07T04:06:04.391Z,52.97
2022-11-07T04:10:06.772Z,47.15
2022-11-07T04:14:26.827Z,47.17
2022-11-07T04:18:29.232Z,49.85
2022-11-07T04:22:31.591Z,51.13
2022-11-07T04:26:52.269Z,57.58
2022-11-07T04:30:53.969Z,49.83
2022-11-07T04:34:55.830Z,52.53
2022-11-07T04:38:57.436Z,51.53
2022-11-07T04:42:59.537Z,55.75
2022-11-07T04:47:01.190Z,48.25
2022-11-07T04:51:03.139Z,53.85
2022-11-07T04:55:10.133Z,56.13
2022-11-07T04:59:12.026Z,57.88
2022-11-07T05:03:14.000Z,56.78
2022-11-07T05:07:16.358Z,59.08
2022-11-07T05:11:17.986Z,59.45
2022-11-07T05:15:20.288Z,74.38
2022-11-07T05:19:22.073Z,62.85
2022-11-07T05:23:24.165Z,65.45
2022-11-07T05:27:25.863Z,63.22
2022-11-07T05:31:27.882Z,66.10
2022-11-07T05:35:29.503Z,64.03
2022-11-07T05:39:31.982Z,70.32
2022-11-07T05:43:33.709Z,69.82
2022-11-07T05:47:35.721Z,69.85
2022-11-07T05:51:37.358Z,68.50
2022-11-07T05:55:39.543Z,75.30
2022-11-07T05:59:41.220Z,72.28
2022-11-07T06:03:43.097Z,80.85
2022-11-07T06:07:44.770Z,80.63
2022-11-07T06:11:46.638Z,73.60
2022-11-07T06:15:48.419Z,75.90
2022-11-07T06:19:50.516Z,67.22
2022-11-07T06:23:52.174Z,74.30
2022-11-07T06:28:02.654Z,70.13
2022-11-07T06:32:05.012Z,69.70
2022-11-07T06:36:09.674Z,67.70
2022-11-07T06:40:11.893Z,69.75
2022-11-07T06:44:14.623Z,70.93
2022-11-07T06:48:16.311Z,72.47
2022-11-07T06:52:18.289Z,70.80
2022-11-07T06:56:20.681Z,66.97
2022-11-07T07:00:22.574Z,68.53
2022-11-07T07:04:24.349Z,63.10
2022-11-07T07:08:26.374Z,64.05
2022-11-07T07:12:28.006Z,59.75
2022-11-07T07:16:30.033Z,57.80
2022-11-07T07:20:32.050Z,56.42
2022-11-07T07:24:33.888Z,54.45
2022-11-07T07:28:37.304Z,55.85
2022-11-07T07:32:39.716Z,54.10
2022-11-07T07:36:41.409Z,54.42
2022-11-07T07:40:43.255Z,55.33
2022-11-07T07:44:45.166Z,51.60
2022-11-07T07:48:47.057Z,50.25
2022-11-07T07:52:48.664Z,50.50
2022-11-07T07:56:50.766Z,50.55
2022-11-07T08:00:53.353Z,48.40
2022-11-07T08:04:55.280Z,49.33
2022-11-07T08:08:57.000Z,47.60
2022-11-07T08:12:58.922Z,45.22
2022-11-07T08:17:01.009Z,45.17
2022-11-07T08:21:03.062Z,45.40
2022-11-07T08:25:06.531Z,45.38
2022-11-07T08:29:08.458Z,43.47
2022-11-07T08:33:10.185Z,41.60
2022-11-07T08:37:12.092Z,42.85
2022-11-07T08:41:17.151Z,39.28
2022-11-07T08:45:21.601Z,40.07
2022-11-07T08:49:23.260Z,37.95
2022-11-07T08:53:26.772Z,37.03
2022-11-07T08:57:28.430Z,38.63
2022-11-07T09:01:30.413Z,35.60
2022-11-07T09:05:32.772Z,34.67
2022-11-07T09:09:34.877Z,34.70
2022-11-07T09:13:37.201Z,35.72
2022-11-07T09:17:39.196Z,33.08
2022-11-07T09:21:41.048Z,34.53
2022-11-07T09:25:43.087Z,31.92
2022-11-07T09:29:44.768Z,31.50
2022-11-07T09:33:46.769Z,31.65
2022-11-07T09:37:50.374Z,33.08
2022-11-07T09:42:04.443Z,30.25
2022-11-07T09:46:16.825Z,30.30
2022-11-07T09:50:34.033Z,30.92
2022-11-07T09:54:40.647Z,27.95
2022-11-07T09:58:45.405Z,27.98
2022-11-07T10:02:50.820Z,27.48
2022-11-07T10:06:59.939Z,29.05
2022-11-07T10:11:12.790Z,25.08
2022-11-07T10:15:44.062Z,23.90
2022-11-07T10:19:55.400Z,20.33
2022-11-07T10:24:22.688Z,21.50
2022-11-07T10:28:25.389Z,20.67
2022-11-07T10:32:45.665Z,19.42
2022-11-07T10:36:47.448Z,20.25
2022-11-07T10:40:51.486Z,18.80
2022-11-07T10:44:55.658Z,18.67
2022-11-07T10:49:01.074Z,19.20
2022-11-07T10:53:09.757Z,19.20
2022-11-07T10:57:15.364Z,17.20
2022-11-07T11:01:24.208Z,18.95
2022-11-07T11:05:28.375Z,17.73
2022-11-07T11:09:32.415Z,16.83
2022-11-07T11:13:34.704Z,18.38
2022-11-07T11:17:36.494Z,17.42
2022-11-07T11:21:41.183Z,16.35
2022-11-07T11:25:45.494Z,17.13
2022-11-07T11:29:54.285Z,14.82
2022-11-07T11:34:04.170Z,15.25
2022-11-07T11:38:39.692Z,16.70
2022-11-07T11:42:59.701Z,15.57
2022-11-07T11:47:15.193Z,15.07
2022-11-07T11:51:40.753Z,14.50
2022-11-07T11:55:53.970Z,15.75
2022-11-07T12:00:38.136Z,14.23
2022-11-07T12:05:06.448Z,13.75
2022-11-07T12:09:20.628Z,12.45
2022-11-07T12:13:42.567Z,12.38
2022-11-07T12:18:23.024Z,12.02
2022-11-07T12:22:52.954Z,12.00
2022-11-07T12:27:14.446Z,11.48
2022-11-07T12:31:31.627Z,12.40
2022-11-07T12:35:52.301Z,11.68
2022-11-07T12:40:11.935Z,12.57
2022-11-07T12:44:23.506Z,11.85
2022-11-07T12:48:58.726Z,11.48
2022-11-07T12:53:22.054Z,12.43
2022-11-07T12:57:26.783Z,12.48
2022-11-07T13:01:41.388Z,11.63
2022-11-07T13:06:05.651Z,11.82
2022-11-07T13:10:20.988Z,11.57
2022-11-07T13:14:28.728Z,10.20
2022-11-07T13:18:30.348Z,12.05
2022-11-07T13:22:33.936Z,9.75
2022-11-07T13:26:50.888Z,10.40
2022-11-07T13:30:55.835Z,10.82
2022-11-07T13:34:59.155Z,10.50
2022-11-07T13:39:07.296Z,11.45
2022-11-07T13:43:15.291Z,10.63
2022-11-07T13:47:23.554Z,10.18
2022-11-07T13:51:33.936Z,11.00
2022-11-07T13:55:47.068Z,10.20
2022-11-07T14:00:07.240Z,11.30
2022-11-07T14:04:21.025Z,10.35
2022-11-07T14:08:28.561Z,9.32
2022-11-07T14:12:30.774Z,9.23
2022-11-07T14:16:32.494Z,31.35
2022-11-07T14:20:34.420Z,58.20
2022-11-07T14:24:36.058Z,12.32
2022-11-07T14:28:39.892Z,12.05
2022-11-07T14:32:48.645Z,33.78
2022-11-07T14:36:53.052Z,13.40
2022-11-07T14:40:57.829Z,13.63
2022-11-07T14:44:59.918Z,23.08
2022-11-07T14:49:01.606Z,13.23
2022-11-07T14:53:08.873Z,16.33
2022-11-07T14:57:13.189Z,26.23
2022-11-07T15:01:29.838Z,15.32
2022-11-07T15:05:51.937Z,21.17
2022-11-07T15:09:56.099Z,21.17
2022-11-07T15:13:59.523Z,26.00
2022-11-07T15:18:05.379Z,20.58
2022-11-07T15:22:24.310Z,33.78
2022-11-07T15:26:32.894Z,22.55
2022-11-07T15:30:34.972Z,39.97
2022-11-07T15:34:58.610Z,108.88
2022-11-07T15:39:00.745Z,53.90
2022-11-07T15:43:02.827Z,28.52
2022-11-07T15:47:05.264Z,17.90
2022-11-07T15:51:08.619Z,28.98
2022-11-07T15:55:15.844Z,43.97
2022-11-07T15:59:22.378Z,30.88
2022-11-07T16:03:26.406Z,28.33
2022-11-07T16:07:28.429Z,19.23
2022-11-07T16:11:30.202Z,17.60
2022-11-07T16:15:33.459Z,14.55
2022-11-07T16:19:35.318Z,16.45
2022-11-07T16:23:37.345Z,15.02
2022-11-07T16:27:39.874Z,12.90
2022-11-07T16:31:42.293Z,15.52
2022-11-07T16:35:43.987Z,54.97
2022-11-07T16:39:46.076Z,55.85
2022-11-07T16:43:48.175Z,19.95
2022-11-07T16:47:50.136Z,26.23
2022-11-07T16:51:51.785Z,29.02
2022-11-07T16:55:55.565Z,16.77
2022-11-07T16:59:57.253Z,19.70
2022-11-07T17:03:59.294Z,21.10
2022-11-07T17:08:01.962Z,20.70
2022-11-07T17:12:10.621Z,34.63
2022-11-07T17:16:21.550Z,14.13
2022-11-07T17:20:49.120Z,137.15
2022-11-07T17:24:45.765Z,18.67
2022-11-07T17:28:48.959Z,19.05
2022-11-07T17:32:50.638Z,15.85
2022-11-07T17:36:52.578Z,19.05
2022-11-07T17:40:54.336Z,12.85
2022-11-07T17:44:56.288Z,17.45
2022-11-07T17:49:04.147Z,12.95
2022-11-07T17:53:06.167Z,14.82
2022-11-07T17:57:08.943Z,15.10
2022-11-07T18:01:17.881Z,13.93
2022-11-07T18:09:22.467Z,12.68
2022-11-07T18:13:24.064Z,13.98
2022-11-07T18:17:26.149Z,14.05
2022-11-07T18:21:28.992Z,14.27
2022-11-07T18:25:31.072Z,14.57
2022-11-07T18:29:32.821Z,13.82
2022-11-07T18:33:35.546Z,13.57
2022-11-07T18:37:37.183Z,13.38
2022-11-07T18:41:39.588Z,15.38
2022-11-07T18:45:41.748Z,15.70
2022-11-07T18:49:43.838Z,15.27
2022-11-07T18:53:45.727Z,15.52
2022-11-07T18:57:47.887Z,14.52
2022-11-07T19:01:49.712Z,14.55
2022-11-07T19:05:52.548Z,14.18
2022-11-07T19:09:54.356Z,15.90
2022-11-07T19:14:01.358Z,15.57
2022-11-07T19:18:03.108Z,14.90
2022-11-07T19:22:05.702Z,14.40
2022-11-07T19:26:08.653Z,17.45
2022-11-07T19:30:11.745Z,20.20
2022-11-07T19:34:13.745Z,18.75
2022-11-07T19:38:15.900Z,17.00
2022-11-07T19:42:17.763Z,23.50
2022-11-07T19:46:23.130Z,25.40
2022-11-07T19:50:24.754Z,37.35
2022-11-07T19:54:26.928Z,46.88
2022-11-07T19:58:28.521Z,26.40
2022-11-07T20:02:33.688Z,23.00
2022-11-07T20:06:38.921Z,21.23
2022-11-07T20:10:48.264Z,21.23
2022-11-07T20:14:49.977Z,21.58
2022-11-07T20:18:52.209Z,22.27
2022-11-07T20:22:54.049Z,30.58
2022-11-07T20:26:55.979Z,32.78
2022-11-07T20:30:57.864Z,32.72
2022-11-07T20:34:59.826Z,47.60
2022-11-07T20:39:02.225Z,33.67
2022-11-07T20:43:05.352Z,28.40
2022-11-07T20:47:07.245Z,25.60
2022-11-07T20:51:11.807Z,22.33
2022-11-07T20:55:13.534Z,22.05
2022-11-07T20:59:15.568Z,22.70
2022-11-07T21:03:17.484Z,23.15
2022-11-07T21:07:22.668Z,22.70
2022-11-07T21:11:25.006Z,22.45
2022-11-07T21:15:27.172Z,57.10
2022-11-07T21:19:29.685Z,31.40
2022-11-07T21:23:31.691Z,30.58
2022-11-07T21:27:36.210Z,24.95
2022-11-07T21:31:40.289Z,27.52
2022-11-07T21:35:42.593Z,30.98
2022-11-07T21:39:44.574Z,28.13
2022-11-07T21:43:46.370Z,25.75
2022-11-07T21:47:48.270Z,25.35
2022-11-07T21:51:50.909Z,23.58
2022-11-07T21:55:53.066Z,25.40
2022-11-07T21:59:54.682Z,25.40
2022-11-07T22:04:06.976Z,26.90
2022-11-07T22:08:10.092Z,24.10
2022-11-07T22:12:12.073Z,25.27
2022-11-07T22:16:17.097Z,25.95
2022-11-07T22:20:19.211Z,27.17
2022-11-07T22:24:21.034Z,28.13
2022-11-07T22:28:23.053Z,25.95
2022-11-07T22:32:24.791Z,28.00
2022-11-07T22:36:27.133Z,25.48
2022-11-07T22:40:28.781Z,24.60
2022-11-07T22:44:31.294Z,26.95
2022-11-07T22:48:33.852Z,27.98
2022-11-07T22:52:35.905Z,24.55
2022-11-07T22:56:37.957Z,27.98
2022-11-07T23:00:39.847Z,30.30
2022-11-07T23:04:41.651Z,29.00
2022-11-07T23:08:44.351Z,30.58
2022-11-07T23:12:46.530Z,30.23
2022-11-07T23:16:50.905Z,29.83
2022-11-07T23:21:11.378Z,30.60
2022-11-07T23:25:13.497Z,31.75
2022-11-07T23:29:18.563Z,27.65
2022-11-07T23:33:20.710Z,30.70
2022-11-07T23:37:22.375Z,27.48
2022-11-07T23:41:25.063Z,27.10
2022-11-07T23:45:45.617Z,27.30
2022-11-07T23:50:05.934Z,29.20
2022-11-07T23:54:26.888Z,28.30
2022-11-07T23:58:47.494Z,29.52
